Time;durP1;ratioP1;P1;durP2;ratioP2;P2;SDS_P1;SDS_P2;PMS_P1;PMS_P2;Temp;Humidity;BMP_temperature;BMP_pressure;BME280_temperature;BME280_humidity;BME280_pressure;Samples;Min_cycle;Max_cycle;Signal;HPM_P1;HPM_P2
2022/01/14 00:01:58;;;;;;;;;;;-0.30;92.50;;;;;;4829856;29;19948;-76
2022/01/14 00:04:26;;;;;;;;;;;-0.20;92.50;;;;;;4830711;29;20305;-76
2022/01/14 00:06:53;;;;;;;;;;;-0.20;92.40;;;;;;4813435;29;19932;-76
2022/01/14 00:09:21;;;;;;;;;;;-0.10;92.40;;;;;;4833895;29;19944;-76
2022/01/14 00:11:52;;;;;;;;;;;-0.10;92.30;;;;;;4838828;29;19924;-76
2022/01/14 00:14:25;;;;;;;;;;;0.00;92.30;;;;;;4851316;29;19924;-77
2022/01/14 00:16:52;;;;;;;;;;;0.00;92.20;;;;;;4827310;29;19924;-76
2022/01/14 00:19:20;;;;;;;;;;;0.10;92.20;;;;;;4834759;29;19932;-75
2022/01/14 00:21:47;;;;;;;;;;;0.10;92.20;;;;;;4824889;29;20313;-76
2022/01/14 00:32:26;;;;;;;;;;;0.30;92.00;;;;;;4842694;29;19947;-76
2022/01/14 00:34:54;;;;;;;;;;;0.30;92.00;;;;;;4841937;29;19931;-76
2022/01/14 00:37:21;;;;;;;;;;;0.40;92.00;;;;;;4850667;29;20011;-76
2022/01/14 00:39:48;;;;;;;;;;;0.50;92.00;;;;;;4836827;29;20281;-75
2022/01/14 00:42:16;;;;;;;;;;;0.50;92.00;;;;;;4825582;29;19925;-75
2022/01/14 00:44:44;;;;;;;;;;;0.50;92.00;;;;;;4838333;29;19929;-75
2022/01/14 00:47:11;;;;;;;;;;;0.50;91.90;;;;;;4825164;29;19925;-76
2022/01/14 00:49:44;;;;;;;;;;;0.50;91.90;;;;;;4823666;29;19925;-76
2022/01/14 00:52:11;;;;;;;;;;;0.50;92.00;;;;;;4849747;29;20411;-76
2022/01/14 00:54:38;;;;;;;;;;;0.50;91.90;;;;;;4827137;29;19925;-76
2022/01/14 00:59:36;;;;;;;;;;;0.50;91.90;;;;;;4823418;29;20404;-76
2022/01/14 01:02:04;;;;;;;;;;;0.50;91.90;;;;;;4825356;29;19932;-75
2022/01/14 01:04:36;;;;;;;;;;;0.50;91.90;;;;;;4830731;29;19931;-76
2022/01/14 01:07:05;;;;;;;;;;;0.50;91.90;;;;;;4828172;29;19944;-76
2022/01/14 01:09:33;;;;;;;;;;;0.40;91.90;;;;;;4833018;29;20304;-76
2022/01/14 01:12:14;;;;;;;;;;;0.40;91.90;;;;;;4827425;29;19932;-75
2022/01/14 01:14:50;;;;;;;;;;;0.30;92.00;;;;;;4842474;29;19924;-76
2022/01/14 01:17:18;;;;;;;;;;;0.30;92.10;;;;;;4824282;29;19924;-76
2022/01/14 01:19:45;;;;;;;;;;;0.40;92.10;;;;;;4841259;29;19931;-75
2022/01/14 01:22:12;;;;;;;;;;;0.30;92.00;;;;;;4842105;29;20337;-76
2022/01/14 01:24:54;;;;;;;;;;;0.30;92.00;;;;;;4841069;29;19931;-76
2022/01/14 01:27:22;;;;;;;;;;;0.30;92.00;;;;;;4825301;29;19931;-76
2022/01/14 01:29:56;;;;;;;;;;;0.30;92.00;;;;;;4842066;29;19925;-76
2022/01/14 01:32:24;;;;;;;;;;;0.20;92.10;;;;;;4842452;29;19925;-76
2022/01/14 01:34:51;;;;;;;;;;;0.20;92.10;;;;;;4835529;29;20306;-76
2022/01/14 01:37:19;;;;;;;;;;;0.20;92.10;;;;;;4840866;29;19925;-76
2022/01/14 01:39:46;;;;;;;;;;;0.10;92.10;;;;;;4838075;29;19935;-77
2022/01/14 01:42:16;;;;;;;;;;;0.10;92.10;;;;;;4841865;29;20483;-77
2022/01/14 01:44:44;;;;;;;;;;;0.10;92.10;;;;;;4839987;29;19925;-75
2022/01/14 01:47:11;;;;;;;;;;;0.00;92.10;;;;;;4824442;29;19924;-76
2022/01/14 01:49:39;;;;;;;;;;;0.00;92.00;;;;;;4835482;29;19925;-76
2022/01/14 01:52:07;;;;;;;;;;;0.00;92.00;;;;;;4822796;29;19926;-76
2022/01/14 01:54:35;;;;;;;;;;;-0.10;92.10;;;;;;4832504;29;19925;-76
2022/01/14 01:57:02;;;;;;;;;;;-0.10;92.40;;;;;;4836091;29;19924;-76
2022/01/14 01:59:30;;;;;;;;;;;-0.10;92.50;;;;;;4834694;29;19928;-76
2022/01/14 02:01:58;;;;;;;;;;;-0.10;92.40;;;;;;4824247;29;19925;-76
2022/01/14 02:04:26;;;;;;;;;;;-0.10;92.50;;;;;;4825680;29;20296;-76
2022/01/14 02:06:54;;;;;;;;;;;0.00;92.40;;;;;;4825788;29;19924;-75
2022/01/14 02:09:22;;;;;;;;;;;-0.10;92.30;;;;;;4838506;29;19924;-75
2022/01/14 02:11:50;;;;;;;;;;;-0.10;92.30;;;;;;4824752;29;19929;-76
2022/01/14 02:17:29;;;;;;;;;;;-0.30;92.10;;;;;;4769468;30;19925;-76
2022/01/14 02:22:54;;;;;;;;;;;-0.40;92.30;;;;;;4769438;30;20434;-76
2022/01/14 02:25:29;;;;;;;;;;;-0.40;92.50;;;;;;4784840;30;19933;-76
2022/01/14 02:27:59;;;;;;;;;;;-0.40;92.70;;;;;;4785109;30;19925;-76
2022/01/14 02:30:27;;;;;;;;;;;-0.50;92.70;;;;;;4784332;30;19925;-76
2022/01/14 02:32:55;;;;;;;;;;;-0.50;92.80;;;;;;4784658;30;19929;-76
2022/01/14 02:35:22;;;;;;;;;;;-0.50;92.80;;;;;;4785186;30;19925;-76
2022/01/14 02:37:50;;;;;;;;;;;-0.50;92.80;;;;;;4770150;30;19926;-77
2022/01/14 02:40:18;;;;;;;;;;;-0.50;92.80;;;;;;4770619;30;19925;-76
2022/01/14 02:42:48;;;;;;;;;;;-0.50;92.90;;;;;;4769809;30;19925;-77
2022/01/14 02:45:16;;;;;;;;;;;-0.50;92.90;;;;;;4784868;30;20349;-76
2022/01/14 02:47:45;;;;;;;;;;;-0.40;92.90;;;;;;4785059;30;19926;-76
2022/01/14 02:50:17;;;;;;;;;;;-0.40;92.80;;;;;;4784887;30;19926;-76
2022/01/14 02:55:23;;;;;;;;;;;-0.40;92.80;;;;;;4840256;29;20301;-76
2022/01/14 02:57:52;;;;;;;;;;;-0.40;92.80;;;;;;4841084;29;19928;-75
2022/01/14 03:00:21;;;;;;;;;;;-0.40;92.90;;;;;;4839342;29;19925;-75
2022/01/14 03:02:50;;;;;;;;;;;-0.40;92.90;;;;;;4810743;29;19924;-75
2022/01/14 03:05:18;;;;;;;;;;;-0.30;92.80;;;;;;4823123;29;19951;-75
2022/01/14 03:07:46;;;;;;;;;;;-0.30;92.80;;;;;;4806669;29;19932;-75
2022/01/14 03:10:15;;;;;;;;;;;-0.30;92.80;;;;;;4805289;29;19924;-76
2022/01/14 03:12:43;;;;;;;;;;;-0.20;92.80;;;;;;4835828;29;19947;-74
2022/01/14 03:15:11;;;;;;;;;;;-0.20;92.90;;;;;;4835563;29;20300;-75
2022/01/14 03:17:39;;;;;;;;;;;-0.10;92.80;;;;;;4827504;29;19924;-75
2022/01/14 03:20:09;;;;;;;;;;;-0.10;92.60;;;;;;4805015;29;19925;-75
2022/01/14 03:22:37;;;;;;;;;;;-0.20;92.40;;;;;;4829138;29;20284;-76
2022/01/14 03:27:51;;;;;;;;;;;-0.30;92.40;;;;;;4828014;29;19935;-75
2022/01/14 03:30:19;;;;;;;;;;;-0.30;92.40;;;;;;4834818;29;19924;-75
2022/01/14 03:32:46;;;;;;;;;;;-0.40;92.50;;;;;;4809911;29;20305;-75
2022/01/14 03:35:13;;;;;;;;;;;-0.50;92.60;;;;;;4810996;29;19947;-75
2022/01/14 03:37:41;;;;;;;;;;;-0.50;92.60;;;;;;4836425;29;19924;-75
2022/01/14 03:40:09;;;;;;;;;;;-0.50;92.80;;;;;;4827644;29;19940;-75
2022/01/14 03:42:36;;;;;;;;;;;-0.40;93.10;;;;;;4832926;29;19925;-75
2022/01/14 03:45:04;;;;;;;;;;;-0.40;93.20;;;;;;4827296;29;19932;-75
2022/01/14 03:47:31;;;;;;;;;;;-0.40;93.20;;;;;;4830117;29;19929;-75
2022/01/14 03:49:58;;;;;;;;;;;-0.40;93.10;;;;;;4839951;29;19924;-77
2022/01/14 03:52:26;;;;;;;;;;;-0.40;93.10;;;;;;4826095;29;19924;-76
2022/01/14 03:54:53;;;;;;;;;;;-0.40;93.00;;;;;;4829003;29;19931;-76
2022/01/14 03:57:40;;;;;;;;;;;-0.40;92.90;;;;;;4824462;29;19925;-76
2022/01/14 04:00:08;;;;;;;;;;;-0.40;92.90;;;;;;4825560;29;19925;-76
2022/01/14 04:02:43;;;;;;;;;;;-0.40;92.80;;;;;;4825869;29;19932;-76
2022/01/14 04:05:11;;;;;;;;;;;-0.50;92.70;;;;;;4824935;29;20380;-75
2022/01/14 04:07:38;;;;;;;;;;;-0.60;92.60;;;;;;4825299;29;19924;-76
2022/01/14 04:10:10;;;;;;;;;;;-0.60;92.60;;;;;;4809092;29;19929;-76
2022/01/14 04:18:00;;;;;;;;;;;-0.80;92.70;;;;;;4831766;29;19924;-76
2022/01/14 04:20:28;;;;;;;;;;;-0.80;92.90;;;;;;4809783;29;19924;-76
2022/01/14 04:22:55;;;;;;;;;;;-0.90;92.90;;;;;;4826929;29;19935;-76
2022/01/14 04:25:23;;;;;;;;;;;-0.90;92.80;;;;;;4843429;29;19932;-76
2022/01/14 04:27:51;;;;;;;;;;;-0.90;92.90;;;;;;4841979;29;19924;-76
2022/01/14 04:30:18;;;;;;;;;;;-0.90;92.80;;;;;;4832957;29;20003;-76
2022/01/14 04:32:46;;;;;;;;;;;-1.00;92.80;;;;;;4838754;29;19932;-76
2022/01/14 04:35:14;;;;;;;;;;;-1.00;92.90;;;;;;4834082;29;19924;-76
2022/01/14 04:37:41;;;;;;;;;;;-1.00;93.00;;;;;;4825215;29;19924;-76
2022/01/14 04:40:09;;;;;;;;;;;-1.00;93.00;;;;;;4835275;29;19931;-76
2022/01/14 04:42:37;;;;;;;;;;;-1.00;92.90;;;;;;4832531;29;19924;-76
2022/01/14 04:45:05;;;;;;;;;;;-1.00;93.00;;;;;;4823898;29;19925;-76
2022/01/14 04:47:45;;;;;;;;;;;-1.00;93.30;;;;;;4823499;29;19928;-75
2022/01/14 04:50:14;;;;;;;;;;;-0.90;93.30;;;;;;4818986;29;20320;-76
2022/01/14 04:52:44;;;;;;;;;;;-0.90;93.40;;;;;;4831931;29;20341;-76
2022/01/14 04:55:12;;;;;;;;;;;-0.70;93.60;;;;;;4824784;29;19925;-76
2022/01/14 04:57:40;;;;;;;;;;;-0.60;93.50;;;;;;4824581;29;19925;-76
2022/01/14 05:00:09;;;;;;;;;;;-0.50;93.50;;;;;;4822586;29;20285;-76
2022/01/14 05:02:37;;;;;;;;;;;-0.50;93.30;;;;;;4840465;29;19924;-76
2022/01/14 05:05:05;;;;;;;;;;;-0.40;93.20;;;;;;4829183;29;19925;-76
2022/01/14 05:07:33;;;;;;;;;;;-0.40;93.20;;;;;;4837465;29;19932;-79
2022/01/14 05:12:33;;;;;;;;;;;-0.40;93.10;;;;;;4841331;29;19925;-76
2022/01/14 05:15:01;;;;;;;;;;;-0.40;93.00;;;;;;4826370;29;19924;-72
2022/01/14 05:17:29;;;;;;;;;;;-0.40;93.00;;;;;;4840678;29;19932;-71
2022/01/14 05:19:58;;;;;;;;;;;-0.50;92.90;;;;;;4840771;29;19925;-76
2022/01/14 05:22:25;;;;;;;;;;;-0.50;92.90;;;;;;4835746;29;19932;-76
2022/01/14 05:24:53;;;;;;;;;;;-0.60;92.80;;;;;;4834934;29;19924;-80
2022/01/14 05:27:20;;;;;;;;;;;-0.60;92.90;;;;;;4820122;29;20377;-77
2022/01/14 05:29:48;;;;;;;;;;;-0.70;92.80;;;;;;4817720;29;19932;-77
2022/01/14 05:32:16;;;;;;;;;;;-0.70;92.80;;;;;;4809876;29;19924;-77
2022/01/14 05:34:46;;;;;;;;;;;-0.90;92.80;;;;;;4826495;29;19925;-77
2022/01/14 05:37:13;;;;;;;;;;;-0.90;92.90;;;;;;4830536;29;19924;-76
2022/01/14 05:39:41;;;;;;;;;;;-1.00;93.00;;;;;;4810188;29;19924;-77
2022/01/14 05:42:10;;;;;;;;;;;-1.00;93.10;;;;;;4833419;29;20373;-76
2022/01/14 05:44:38;;;;;;;;;;;-1.10;93.00;;;;;;4821125;29;19925;-76
2022/01/14 05:47:05;;;;;;;;;;;-1.10;93.00;;;;;;4821567;29;19925;-76
2022/01/14 05:49:33;;;;;;;;;;;-1.10;93.00;;;;;;4837105;29;19935;-76
2022/01/14 05:52:01;;;;;;;;;;;-1.20;93.10;;;;;;4837760;29;19931;-77
2022/01/14 05:54:28;;;;;;;;;;;-1.20;93.20;;;;;;4831027;29;19935;-77
2022/01/14 05:56:55;;;;;;;;;;;-1.20;93.20;;;;;;4822106;29;19925;-76
2022/01/14 05:59:23;;;;;;;;;;;-1.20;93.30;;;;;;4823844;29;20393;-76
2022/01/14 06:01:51;;;;;;;;;;;-1.20;93.30;;;;;;4837580;29;19924;-76
2022/01/14 06:04:18;;;;;;;;;;;-1.20;93.30;;;;;;4840940;29;20456;-76
2022/01/14 06:06:45;;;;;;;;;;;-1.20;93.20;;;;;;4814404;29;19925;-76
2022/01/14 06:09:13;;;;;;;;;;;-1.30;93.10;;;;;;4823292;29;19928;-77
2022/01/14 06:11:40;;;;;;;;;;;-1.30;93.10;;;;;;4826346;29;19941;-76
2022/01/14 06:14:07;;;;;;;;;;;-1.30;93.20;;;;;;4834952;29;19936;-76
2022/01/14 06:16:35;;;;;;;;;;;-1.30;93.20;;;;;;4835708;29;19936;-76
2022/01/14 06:19:02;;;;;;;;;;;-1.40;93.20;;;;;;4838580;29;19928;-76
2022/01/14 06:21:30;;;;;;;;;;;-1.40;93.20;;;;;;4837534;29;19925;-76
2022/01/14 06:23:57;;;;;;;;;;;-1.40;93.20;;;;;;4838381;29;19947;-76
2022/01/14 06:26:24;;;;;;;;;;;-1.40;93.30;;;;;;4812483;29;20316;-76
2022/01/14 06:28:52;;;;;;;;;;;-1.40;93.40;;;;;;4824779;29;19924;-76
2022/01/14 06:31:20;;;;;;;;;;;-1.40;93.40;;;;;;4818028;29;19932;-76
2022/01/14 06:33:47;;;;;;;;;;;-1.40;93.40;;;;;;4828835;29;19929;-76
2022/01/14 06:36:15;;;;;;;;;;;-1.50;93.40;;;;;;4841579;29;19924;-76
2022/01/14 06:38:42;;;;;;;;;;;-1.50;93.30;;;;;;4838990;29;20003;-76
2022/01/14 06:41:10;;;;;;;;;;;-1.50;93.30;;;;;;4840817;29;20391;-76
2022/01/14 06:43:37;;;;;;;;;;;-1.60;93.40;;;;;;4834678;29;19924;-76
2022/01/14 06:46:04;;;;;;;;;;;-1.50;93.70;;;;;;4828869;29;19925;-75
2022/01/14 06:48:33;;;;;;;;;;;-1.40;93.80;;;;;;4840487;29;20348;-76
2022/01/14 06:51:01;;;;;;;;;;;-1.20;94.00;;;;;;4841183;29;19924;-76
2022/01/14 06:53:28;;;;;;;;;;;-1.20;93.90;;;;;;4836367;29;19933;-76
2022/01/14 06:55:56;;;;;;;;;;;-1.20;93.60;;;;;;4834098;29;19924;-77
2022/01/14 06:58:23;;;;;;;;;;;-1.20;93.40;;;;;;4826108;29;19928;-76
2022/01/14 07:00:52;;;;;;;;;;;-1.30;93.20;;;;;;4826024;29;19932;-76
2022/01/14 07:03:20;;;;;;;;;;;-1.40;93.10;;;;;;4826736;29;19925;-76
2022/01/14 07:05:47;;;;;;;;;;;-1.40;93.20;;;;;;4845407;29;19928;-76
2022/01/14 07:08:14;;;;;;;;;;;-1.50;93.20;;;;;;4832314;29;19924;-76
2022/01/14 07:10:42;;;;;;;;;;;-1.60;93.10;;;;;;4821978;29;19925;-76
2022/01/14 07:13:09;;;;;;;;;;;-1.60;93.00;;;;;;4828775;29;19931;-76
2022/01/14 07:15:37;;;;;;;;;;;-1.70;93.00;;;;;;4843409;29;19948;-76
2022/01/14 07:18:04;;;;;;;;;;;-1.70;93.20;;;;;;4834870;29;19953;-77
2022/01/14 07:20:32;;;;;;;;;;;-1.70;93.30;;;;;;4833454;29;19932;-77
2022/01/14 07:22:59;;;;;;;;;;;-1.80;93.30;;;;;;4827369;29;19924;-76
2022/01/14 07:25:27;;;;;;;;;;;-1.80;93.40;;;;;;4832037;29;20377;-76
2022/01/14 07:27:54;;;;;;;;;;;-1.80;93.40;;;;;;4834267;29;19932;-77
2022/01/14 07:30:22;;;;;;;;;;;-1.80;93.20;;;;;;4837313;29;19931;-77
2022/01/14 07:32:50;;;;;;;;;;;-1.90;93.10;;;;;;4828498;29;19936;-77
2022/01/14 07:35:17;;;;;;;;;;;-2.00;93.10;;;;;;4840700;29;20393;-77
2022/01/14 07:37:44;;;;;;;;;;;-2.00;93.30;;;;;;4829233;29;19925;-77
2022/01/14 07:40:12;;;;;;;;;;;-2.00;93.40;;;;;;4829307;29;20344;-76
2022/01/14 07:42:39;;;;;;;;;;;-2.00;93.40;;;;;;4843269;29;19924;-76
2022/01/14 07:45:07;;;;;;;;;;;-2.00;93.50;;;;;;4843643;29;19932;-77
2022/01/14 07:47:34;;;;;;;;;;;-2.00;93.50;;;;;;4842908;29;19928;-77
2022/01/14 07:50:02;;;;;;;;;;;-2.00;93.60;;;;;;4843683;29;19941;-77
2022/01/14 07:52:30;;;;;;;;;;;-1.90;93.80;;;;;;4844148;29;20300;-78
2022/01/14 07:54:57;;;;;;;;;;;-1.90;93.80;;;;;;4843340;29;20312;-77
2022/01/14 07:57:25;;;;;;;;;;;-1.90;93.80;;;;;;4844063;29;20399;-78
2022/01/14 07:59:52;;;;;;;;;;;-1.90;93.70;;;;;;4837857;29;19928;-77
2022/01/14 08:02:21;;;;;;;;;;;-1.90;93.80;;;;;;4828000;29;19948;-79
2022/01/14 08:04:49;;;;;;;;;;;-1.90;93.80;;;;;;4845315;29;19983;-77
2022/01/14 08:07:22;;;;;;;;;;;-1.90;93.90;;;;;;4844210;29;20023;-78
2022/01/14 08:09:53;;;;;;;;;;;-1.90;94.00;;;;;;4839413;29;19924;-78
2022/01/14 08:12:20;;;;;;;;;;;-1.80;94.10;;;;;;4838024;29;19935;-77
2022/01/14 08:14:47;;;;;;;;;;;-1.80;94.10;;;;;;4835106;29;19935;-78
2022/01/14 08:17:18;;;;;;;;;;;-1.70;94.20;;;;;;4832117;29;19948;-78
2022/01/14 08:19:46;;;;;;;;;;;-1.70;94.20;;;;;;4810054;29;19925;-81
2022/01/14 08:22:14;;;;;;;;;;;-1.70;94.20;;;;;;4814072;29;19928;-79
2022/01/14 08:24:41;;;;;;;;;;;-1.70;94.20;;;;;;4841021;29;19924;-78
2022/01/14 08:27:08;;;;;;;;;;;-1.60;94.10;;;;;;4838257;29;20003;-77
2022/01/14 08:29:36;;;;;;;;;;;-1.60;94.10;;;;;;4841610;29;19924;-77
2022/01/14 08:32:04;;;;;;;;;;;-1.60;94.10;;;;;;4834541;29;19929;-77
2022/01/14 08:34:32;;;;;;;;;;;-1.60;94.10;;;;;;4836687;29;19931;-77
2022/01/14 08:37:00;;;;;;;;;;;-1.60;94.00;;;;;;4842707;29;19937;-77
2022/01/14 08:39:27;;;;;;;;;;;-1.60;94.00;;;;;;4843899;29;19931;-77
2022/01/14 08:41:55;;;;;;;;;;;-1.60;94.00;;;;;;4841112;29;19935;-78
2022/01/14 08:44:23;;;;;;;;;;;-1.50;94.10;;;;;;4843626;29;20337;-77
2022/01/14 08:46:51;;;;;;;;;;;-1.50;94.00;;;;;;4843703;29;20384;-78
2022/01/14 08:49:19;;;;;;;;;;;-1.50;94.00;;;;;;4826786;29;20411;-78
2022/01/14 08:51:47;;;;;;;;;;;-1.40;94.00;;;;;;4843492;29;19935;-78
2022/01/14 08:54:14;;;;;;;;;;;-1.40;94.00;;;;;;4826766;29;19943;-78
2022/01/14 08:56:42;;;;;;;;;;;-1.40;94.00;;;;;;4826336;29;20306;-78
2022/01/14 08:59:09;;;;;;;;;;;-1.30;94.00;;;;;;4826490;29;20376;-77
2022/01/14 09:01:40;;;;;;;;;;;-1.30;94.00;;;;;;4826710;29;19931;-77
2022/01/14 09:04:08;;;;;;;;;;;-1.20;94.00;;;;;;4827337;29;19924;-77
2022/01/14 09:06:35;;;;;;;;;;;-1.20;93.90;;;;;;4826759;29;19935;-77
2022/01/14 09:09:03;;;;;;;;;;;-1.20;93.90;;;;;;4843209;29;19924;-78
2022/01/14 09:11:31;;;;;;;;;;;-1.10;93.90;;;;;;4842009;29;19932;-77
2022/01/14 09:13:58;;;;;;;;;;;-1.10;93.90;;;;;;4817215;29;19924;-77
2022/01/14 09:16:26;;;;;;;;;;;-1.00;93.90;;;;;;4825140;29;19924;-77
2022/01/14 09:18:53;;;;;;;;;;;-0.90;93.90;;;;;;4824328;29;19925;-77
2022/01/14 09:21:21;;;;;;;;;;;-0.90;93.90;;;;;;4824704;29;19925;-76
2022/01/14 09:24:03;;;;;;;;;;;-0.80;93.80;;;;;;4824416;29;19924;-77
2022/01/14 09:26:31;;;;;;;;;;;-0.80;93.80;;;;;;4824260;29;19932;-78
2022/01/14 09:28:59;;;;;;;;;;;-0.70;93.80;;;;;;4823387;29;19936;-78
2022/01/14 09:31:27;;;;;;;;;;;-0.60;93.80;;;;;;4823925;29;19948;-78
2022/01/14 09:33:55;;;;;;;;;;;-0.60;93.80;;;;;;4822570;29;19952;-78
2022/01/14 09:36:23;;;;;;;;;;;-0.60;93.80;;;;;;4824258;29;19932;-78
2022/01/14 09:38:50;;;;;;;;;;;-0.50;93.80;;;;;;4824268;29;19925;-78
2022/01/14 09:41:18;;;;;;;;;;;-0.40;93.80;;;;;;4823632;29;19932;-78
2022/01/14 09:43:45;;;;;;;;;;;-0.40;93.70;;;;;;4824378;29;19928;-78
2022/01/14 09:46:13;;;;;;;;;;;-0.30;93.80;;;;;;4824409;29;19924;-78
2022/01/14 09:48:41;;;;;;;;;;;-0.30;93.70;;;;;;4823808;29;19925;-78
2022/01/14 09:51:08;;;;;;;;;;;-0.20;93.60;;;;;;4807830;29;19947;-78
2022/01/14 09:53:35;;;;;;;;;;;-0.20;93.60;;;;;;4792913;29;19936;-77
2022/01/14 09:56:03;;;;;;;;;;;-0.20;93.60;;;;;;4812366;29;19933;-78
2022/01/14 09:58:40;;;;;;;;;;;-0.20;93.60;;;;;;4789637;29;20392;-78
2022/01/14 10:01:13;;;;;;;;;;;-0.10;93.50;;;;;;4805631;29;19932;-78
2022/01/14 10:03:47;;;;;;;;;;;-0.10;93.50;;;;;;4789203;29;20297;-78
2022/01/14 10:06:35;;;;;;;;;;;-0.10;93.60;;;;;;4806026;29;19928;-78
2022/01/14 10:09:05;;;;;;;;;;;-0.10;93.60;;;;;;4774544;29;19925;-78
2022/01/14 10:11:32;;;;;;;;;;;0.00;93.60;;;;;;4805438;29;19925;-77
2022/01/14 10:14:04;;;;;;;;;;;0.00;93.60;;;;;;4804378;29;19925;-78
2022/01/14 10:16:31;;;;;;;;;;;0.00;93.60;;;;;;4803734;29;19925;-78
2022/01/14 10:18:59;;;;;;;;;;;0.00;93.60;;;;;;4790453;29;19936;-78
2022/01/14 10:21:33;;;;;;;;;;;0.10;93.60;;;;;;4806722;29;19925;-78
2022/01/14 10:24:00;;;;;;;;;;;0.10;93.60;;;;;;4805286;29;20377;-78
2022/01/14 10:26:44;;;;;;;;;;;0.20;93.60;;;;;;4805409;29;19925;-78
2022/01/14 10:29:12;;;;;;;;;;;0.20;93.60;;;;;;4805614;29;20374;-77
2022/01/14 10:31:43;;;;;;;;;;;0.20;93.60;;;;;;4804522;29;19925;-78
2022/01/14 10:34:12;;;;;;;;;;;0.20;93.70;;;;;;4805323;29;19925;-78
2022/01/14 10:36:42;;;;;;;;;;;0.30;93.70;;;;;;4788712;29;19925;-78
2022/01/14 10:39:25;;;;;;;;;;;0.30;93.70;;;;;;4807555;29;19925;-78
2022/01/14 10:41:55;;;;;;;;;;;0.50;93.80;;;;;;4808528;29;19948;-78
2022/01/14 10:44:27;;;;;;;;;;;0.50;93.70;;;;;;4808761;29;19952;-78
2022/01/14 10:47:09;;;;;;;;;;;0.60;93.70;;;;;;4808101;29;19925;-78
2022/01/14 10:49:37;;;;;;;;;;;0.60;93.70;;;;;;4777951;29;19925;-78
2022/01/14 10:52:09;;;;;;;;;;;0.70;93.60;;;;;;4807242;29;20299;-78
2022/01/14 10:54:38;;;;;;;;;;;0.80;93.70;;;;;;4792413;29;20373;-78
2022/01/14 10:57:16;;;;;;;;;;;0.80;93.70;;;;;;4807702;29;19932;-76
2022/01/14 10:59:44;;;;;;;;;;;0.90;93.60;;;;;;4808582;29;19925;-77
2022/01/14 11:02:30;;;;;;;;;;;0.90;93.60;;;;;;4792811;29;19925;-76
2022/01/14 11:05:06;;;;;;;;;;;1.00;93.60;;;;;;4792653;29;19933;-79
2022/01/14 11:07:34;;;;;;;;;;;1.00;93.50;;;;;;4792344;29;20313;-79
2022/01/14 11:10:11;;;;;;;;;;;1.00;93.40;;;;;;4792470;29;19925;-79
2022/01/14 11:12:40;;;;;;;;;;;1.10;93.40;;;;;;4808293;29;19936;-78
2022/01/14 11:15:08;;;;;;;;;;;1.10;93.40;;;;;;4826502;29;19932;-80
2022/01/14 11:17:36;;;;;;;;;;;1.20;93.50;;;;;;4825491;29;19935;-80
2022/01/14 11:23:14;;;;;;;;;;;1.30;93.40;;;;;;4812271;29;19928;-80
2022/01/14 11:23:14;;;;;;;;;;;1.30;93.40;;;;;;4826101;29;19925;-80
2022/01/14 11:25:57;;;;;;;;;;;1.30;93.40;;;;;;4811215;29;19930;-78
2022/01/14 11:28:29;;;;;;;;;;;1.50;93.40;;;;;;4825915;29;19925;-80
2022/01/14 11:30:57;;;;;;;;;;;1.60;93.50;;;;;;4810047;29;19925;-80
2022/01/14 11:33:41;;;;;;;;;;;1.70;93.40;;;;;;4825024;29;19925;-80
2022/01/14 11:36:09;;;;;;;;;;;1.70;93.40;;;;;;4825842;29;19924;-80
2022/01/14 11:38:41;;;;;;;;;;;1.80;93.30;;;;;;4826073;29;19947;-80
2022/01/14 11:41:10;;;;;;;;;;;1.80;93.30;;;;;;4825668;29;19925;-80
2022/01/14 11:43:39;;;;;;;;;;;1.80;93.30;;;;;;4826043;29;20365;-80
2022/01/14 11:46:09;;;;;;;;;;;1.90;93.20;;;;;;4826372;29;19928;-79
2022/01/14 11:48:41;;;;;;;;;;;1.90;93.10;;;;;;4809370;29;19928;-80
2022/01/14 11:51:15;;;;;;;;;;;2.10;93.10;;;;;;4809897;29;19928;-80
2022/01/14 11:53:48;;;;;;;;;;;2.00;93.00;;;;;;4825727;29;19931;-80
2022/01/14 11:56:31;;;;;;;;;;;2.10;93.00;;;;;;4839331;29;19924;-80
2022/01/14 11:59:17;;;;;;;;;;;2.10;93.00;;;;;;4844148;29;19925;-81
2022/01/14 12:01:45;;;;;;;;;;;2.10;92.90;;;;;;4844104;29;19932;-81
2022/01/14 12:04:13;;;;;;;;;;;2.20;92.90;;;;;;4845562;29;19924;-80
2022/01/14 12:06:54;;;;;;;;;;;2.20;92.90;;;;;;4844219;29;20325;-80
2022/01/14 12:09:22;;;;;;;;;;;2.30;92.80;;;;;;4847479;29;19930;-80
2022/01/14 12:12:08;;;;;;;;;;;2.40;92.80;;;;;;4845736;29;19925;-80
2022/01/14 12:14:44;;;;;;;;;;;2.40;92.80;;;;;;4846112;29;19925;-81
2022/01/14 12:17:13;;;;;;;;;;;2.60;92.80;;;;;;4845373;29;20384;-80
2022/01/14 12:19:41;;;;;;;;;;;2.70;92.80;;;;;;4846230;29;19931;-80
2022/01/14 12:22:10;;;;;;;;;;;2.80;92.70;;;;;;4845071;29;19931;-80
2022/01/14 12:24:37;;;;;;;;;;;2.90;92.70;;;;;;4828691;29;19924;-80
2022/01/14 12:27:07;;;;;;;;;;;3.10;92.70;;;;;;4844081;29;19924;-80
2022/01/14 12:29:42;;;;;;;;;;;3.30;92.60;;;;;;4844101;29;19935;-80
2022/01/14 12:32:20;;;;;;;;;;;3.40;92.50;;;;;;4843347;29;19931;-79
2022/01/14 12:34:54;;;;;;;;;;;3.60;92.60;;;;;;4842452;29;19924;-78
2022/01/14 12:37:31;;;;;;;;;;;3.80;92.60;;;;;;4827366;29;19931;-79
2022/01/14 12:40:03;;;;;;;;;;;4.10;92.60;;;;;;4843540;29;20007;-79
2022/01/14 12:42:30;;;;;;;;;;;4.60;92.80;;;;;;4843073;29;19924;-79
2022/01/14 12:44:59;;;;;;;;;;;5.10;92.60;;;;;;4842925;29;19924;-80
2022/01/14 12:47:30;;;;;;;;;;;5.70;92.50;;;;;;4811779;29;20349;-79
2022/01/14 12:50:03;;;;;;;;;;;6.30;92.40;;;;;;4826323;29;19931;-79
2022/01/14 12:52:37;;;;;;;;;;;6.90;91.90;;;;;;4826432;29;20333;-79
2022/01/14 12:55:06;;;;;;;;;;;7.40;91.60;;;;;;4826356;29;20384;-79
2022/01/14 12:57:34;;;;;;;;;;;7.80;90.90;;;;;;4827099;29;19931;-79
2022/01/14 13:00:04;;;;;;;;;;;8.10;90.10;;;;;;4826456;29;20301;-79
2022/01/14 13:02:32;;;;;;;;;;;8.40;89.10;;;;;;4826477;29;19925;-79
2022/01/14 13:05:00;;;;;;;;;;;8.80;88.70;;;;;;4841735;29;19931;-79
2022/01/14 13:07:28;;;;;;;;;;;9.20;88.40;;;;;;4826738;29;19931;-79
2022/01/14 13:09:55;;;;;;;;;;;9.70;88.00;;;;;;4811090;29;20334;-78
2022/01/14 13:12:27;;;;;;;;;;;10.10;87.60;;;;;;4842414;29;19947;-78
2022/01/14 13:15:04;;;;;;;;;;;10.50;87.10;;;;;;4842143;29;19931;-78
2022/01/14 13:17:33;;;;;;;;;;;10.90;86.50;;;;;;4842986;29;19924;-79
2022/01/14 13:20:03;;;;;;;;;;;11.30;86.10;;;;;;4842838;29;19925;-79
2022/01/14 13:22:31;;;;;;;;;;;11.60;85.70;;;;;;4841251;29;19924;-78
2022/01/14 13:25:00;;;;;;;;;;;11.90;85.40;;;;;;4842025;29;19931;-78
2022/01/14 13:27:30;;;;;;;;;;;12.20;84.70;;;;;;4842258;29;19928;-78
2022/01/14 13:29:59;;;;;;;;;;;12.40;83.90;;;;;;4826189;29;20308;-78
2022/01/14 13:32:29;;;;;;;;;;;12.60;83.60;;;;;;4841935;29;19928;-79
2022/01/14 13:34:58;;;;;;;;;;;12.80;83.30;;;;;;4842468;29;20396;-79
2022/01/14 13:37:26;;;;;;;;;;;12.90;82.40;;;;;;4841386;29;20376;-78
2022/01/14 13:40:03;;;;;;;;;;;13.00;81.30;;;;;;4842351;29;19931;-78
2022/01/14 13:42:31;;;;;;;;;;;13.20;80.40;;;;;;4841926;29;19924;-78
2022/01/14 13:45:13;;;;;;;;;;;13.30;80.50;;;;;;4841846;29;19925;-78
2022/01/14 13:47:41;;;;;;;;;;;13.40;79.90;;;;;;4842078;29;19925;-78
2022/01/14 13:50:17;;;;;;;;;;;13.70;79.40;;;;;;4825824;29;19924;-78
2022/01/14 13:52:47;;;;;;;;;;;13.80;78.60;;;;;;4840767;29;19932;-78
2022/01/14 13:55:27;;;;;;;;;;;13.80;78.20;;;;;;4825805;29;19924;-78
2022/01/14 13:58:05;;;;;;;;;;;13.90;77.90;;;;;;4825765;29;19924;-79
2022/01/14 14:00:33;;;;;;;;;;;13.80;77.30;;;;;;4842729;29;19925;-78
2022/01/14 14:03:00;;;;;;;;;;;13.30;76.10;;;;;;4844919;29;19931;-78
2022/01/14 14:05:35;;;;;;;;;;;12.30;73.50;;;;;;4842727;29;19929;-78
2022/01/14 14:08:15;;;;;;;;;;;11.30;75.10;;;;;;4840796;29;19924;-78
2022/01/14 14:11:50;;;;;;;;;;;10.30;74.90;;;;;;4825742;29;20309;-79
2022/01/14 14:15:40;;;;;;;;;;;9.50;76.50;;;;;;4841099;29;19925;-78
2022/01/14 14:16:29;;;;;;;;;;;8.80;77.60;;;;;;4825169;29;19924;-78
2022/01/14 14:18:58;;;;;;;;;;;8.30;78.40;;;;;;4841230;29;19944;-80
2022/01/14 14:21:28;;;;;;;;;;;7.90;79.00;;;;;;4842047;29;19931;-78
2022/01/14 14:23:57;;;;;;;;;;;7.60;79.30;;;;;;4810376;29;19925;-78
2022/01/14 14:26:31;;;;;;;;;;;7.30;79.60;;;;;;4841831;29;19928;-78
2022/01/14 14:29:22;;;;;;;;;;;7.10;79.90;;;;;;4841802;29;20517;-79
2022/01/14 14:31:49;;;;;;;;;;;6.90;80.30;;;;;;4830563;29;19932;-79
2022/01/14 14:34:17;;;;;;;;;;;6.70;80.60;;;;;;4842111;29;19925;-79
2022/01/14 14:36:44;;;;;;;;;;;6.60;80.90;;;;;;4841356;29;20421;-79
2022/01/14 14:39:12;;;;;;;;;;;6.40;81.00;;;;;;4841715;29;19924;-79
2022/01/14 14:41:39;;;;;;;;;;;6.30;81.30;;;;;;4825599;29;19933;-79
2022/01/14 14:44:07;;;;;;;;;;;6.20;81.50;;;;;;4825217;29;19924;-78
2022/01/14 14:46:35;;;;;;;;;;;6.10;81.60;;;;;;4841659;29;19932;-78
2022/01/14 14:49:02;;;;;;;;;;;6.10;81.70;;;;;;4839761;29;19932;-78
2022/01/14 14:51:30;;;;;;;;;;;6.00;81.80;;;;;;4840587;29;19924;-79
2022/01/14 14:53:59;;;;;;;;;;;5.90;81.90;;;;;;4825468;29;19929;-77
2022/01/14 14:56:26;;;;;;;;;;;5.80;82.00;;;;;;4840682;29;19924;-77
2022/01/14 14:58:54;;;;;;;;;;;5.70;82.10;;;;;;4807273;29;19925;-77
2022/01/14 15:01:21;;;;;;;;;;;5.70;82.20;;;;;;4792017;29;20289;-77
2022/01/14 15:03:49;;;;;;;;;;;5.60;82.40;;;;;;4821633;29;19932;-77
2022/01/14 15:06:17;;;;;;;;;;;5.60;82.50;;;;;;4823492;29;19925;-78